sensor_id;sensor_type;location;lat;lon;timestamp;temperature;humidity
72604;DHT22;60645;56.968;24.196;2023-05-10T00:00:33;10.00;52.90
72604;DHT22;60645;56.968;24.196;2023-05-10T00:03:00;10.00;52.60
72604;DHT22;60645;56.968;24.196;2023-05-10T00:05:27;9.90;52.80
72604;DHT22;60645;56.968;24.196;2023-05-10T00:07:53;9.90;53.20
72604;DHT22;60645;56.968;24.196;2023-05-10T00:10:20;9.80;53.40
72604;DHT22;60645;56.968;24.196;2023-05-10T00:12:47;9.80;54.20
72604;DHT22;60645;56.968;24.196;2023-05-10T00:15:14;9.80;54.50
72604;DHT22;60645;56.968;24.196;2023-05-10T00:17:40;9.70;53.80
72604;DHT22;60645;56.968;24.196;2023-05-10T00:20:07;9.80;54.80
72604;DHT22;60645;56.968;24.196;2023-05-10T00:22:35;9.70;55.30
72604;DHT22;60645;56.968;24.196;2023-05-10T00:25:01;9.60;55.40
72604;DHT22;60645;56.968;24.196;2023-05-10T00:27:28;9.60;55.70
72604;DHT22;60645;56.968;24.196;2023-05-10T00:29:55;9.60;55.50
72604;DHT22;60645;56.968;24.196;2023-05-10T00:32:22;9.50;55.60
72604;DHT22;60645;56.968;24.196;2023-05-10T00:34:48;9.50;55.80
72604;DHT22;60645;56.968;24.196;2023-05-10T00:37:15;9.60;56.20
72604;DHT22;60645;56.968;24.196;2023-05-10T00:39:42;9.50;56.10
72604;DHT22;60645;56.968;24.196;2023-05-10T00:42:09;9.50;55.90
72604;DHT22;60645;56.968;24.196;2023-05-10T00:44:36;9.50;56.00
72604;DHT22;60645;56.968;24.196;2023-05-10T00:47:02;9.60;56.30
72604;DHT22;60645;56.968;24.196;2023-05-10T00:49:29;9.50;56.20
72604;DHT22;60645;56.968;24.196;2023-05-10T00:51:56;9.40;57.10
72604;DHT22;60645;56.968;24.196;2023-05-10T00:54:23;9.40;56.40
72604;DHT22;60645;56.968;24.196;2023-05-10T00:56:50;9.50;57.00
72604;DHT22;60645;56.968;24.196;2023-05-10T00:59:17;9.40;57.20
72604;DHT22;60645;56.968;24.196;2023-05-10T01:01:44;9.40;58.00
72604;DHT22;60645;56.968;24.196;2023-05-10T01:04:12;9.40;58.10
72604;DHT22;60645;56.968;24.196;2023-05-10T01:06:40;9.30;58.30
72604;DHT22;60645;56.968;24.196;2023-05-10T01:09:07;9.30;58.80
72604;DHT22;60645;56.968;24.196;2023-05-10T01:11:38;9.30;59.00
72604;DHT22;60645;56.968;24.196;2023-05-10T01:14:05;9.30;59.20
72604;DHT22;60645;56.968;24.196;2023-05-10T01:16:33;9.30;59.30
72604;DHT22;60645;56.968;24.196;2023-05-10T01:19:01;9.20;59.30
72604;DHT22;60645;56.968;24.196;2023-05-10T01:29:19;9.20;60.10
72604;DHT22;60645;56.968;24.196;2023-05-10T01:34:20;9.00;61.00
72604;DHT22;60645;56.968;24.196;2023-05-10T01:39:18;8.90;61.10
72604;DHT22;60645;56.968;24.196;2023-05-10T01:41:49;9.00;61.90
72604;DHT22;60645;56.968;24.196;2023-05-10T01:44:20;8.80;61.90
72604;DHT22;60645;56.968;24.196;2023-05-10T01:46:53;8.80;61.60
72604;DHT22;60645;56.968;24.196;2023-05-10T01:49:25;8.80;61.90
72604;DHT22;60645;56.968;24.196;2023-05-10T01:51:53;8.70;62.00
72604;DHT22;60645;56.968;24.196;2023-05-10T01:54:23;8.80;62.10
72604;DHT22;60645;56.968;24.196;2023-05-10T01:56:59;8.70;62.40
72604;DHT22;60645;56.968;24.196;2023-05-10T01:59:28;8.70;62.40
72604;DHT22;60645;56.968;24.196;2023-05-10T02:01:57;8.80;62.10
72604;DHT22;60645;56.968;24.196;2023-05-10T02:04:25;8.80;62.20
72604;DHT22;60645;56.968;24.196;2023-05-10T02:06:52;8.70;63.00
72604;DHT22;60645;56.968;24.196;2023-05-10T02:09:20;8.70;63.00
72604;DHT22;60645;56.968;24.196;2023-05-10T02:11:48;8.60;62.80
72604;DHT22;60645;56.968;24.196;2023-05-10T02:14:15;8.60;63.20
72604;DHT22;60645;56.968;24.196;2023-05-10T02:16:43;8.60;62.80
72604;DHT22;60645;56.968;24.196;2023-05-10T02:19:11;8.60;63.20
72604;DHT22;60645;56.968;24.196;2023-05-10T02:21:40;8.70;62.60
72604;DHT22;60645;56.968;24.196;2023-05-10T02:24:07;8.70;62.70
72604;DHT22;60645;56.968;24.196;2023-05-10T02:26:35;8.80;62.10
72604;DHT22;60645;56.968;24.196;2023-05-10T02:29:02;8.70;62.70
72604;DHT22;60645;56.968;24.196;2023-05-10T02:31:33;8.70;62.50
72604;DHT22;60645;56.968;24.196;2023-05-10T02:34:00;8.80;62.70
72604;DHT22;60645;56.968;24.196;2023-05-10T02:36:28;8.80;62.90
72604;DHT22;60645;56.968;24.196;2023-05-10T02:38:55;8.60;62.70
72604;DHT22;60645;56.968;24.196;2023-05-10T02:41:22;8.70;63.30
72604;DHT22;60645;56.968;24.196;2023-05-10T02:43:51;8.80;63.00
72604;DHT22;60645;56.968;24.196;2023-05-10T02:46:18;8.90;62.00
72604;DHT22;60645;56.968;24.196;2023-05-10T02:48:45;8.90;61.80
72604;DHT22;60645;56.968;24.196;2023-05-10T02:51:12;9.00;61.70
72604;DHT22;60645;56.968;24.196;2023-05-10T02:53:40;9.20;60.90
72604;DHT22;60645;56.968;24.196;2023-05-10T02:56:14;9.20;60.60
72604;DHT22;60645;56.968;24.196;2023-05-10T02:58:42;9.40;60.80
72604;DHT22;60645;56.968;24.196;2023-05-10T03:01:09;9.50;60.10
72604;DHT22;60645;56.968;24.196;2023-05-10T03:03:36;9.50;59.90
72604;DHT22;60645;56.968;24.196;2023-05-10T03:06:02;9.60;60.00
72604;DHT22;60645;56.968;24.196;2023-05-10T03:08:29;9.60;60.10
72604;DHT22;60645;56.968;24.196;2023-05-10T03:16:29;9.80;59.40
72604;DHT22;60645;56.968;24.196;2023-05-10T03:19:01;10.00;58.80
72604;DHT22;60645;56.968;24.196;2023-05-10T03:21:33;10.10;58.50
72604;DHT22;60645;56.968;24.196;2023-05-10T03:24:05;10.10;58.10
72604;DHT22;60645;56.968;24.196;2023-05-10T03:26:33;10.10;58.50
72604;DHT22;60645;56.968;24.196;2023-05-10T03:29:00;10.10;58.00
72604;DHT22;60645;56.968;24.196;2023-05-10T03:31:27;10.30;58.00
72604;DHT22;60645;56.968;24.196;2023-05-10T03:33:54;10.50;57.20
72604;DHT22;60645;56.968;24.196;2023-05-10T03:36:21;10.70;56.50
72604;DHT22;60645;56.968;24.196;2023-05-10T03:38:48;10.70;56.20
72604;DHT22;60645;56.968;24.196;2023-05-10T03:41:14;10.90;56.40
72604;DHT22;60645;56.968;24.196;2023-05-10T03:43:41;11.10;55.60
72604;DHT22;60645;56.968;24.196;2023-05-10T03:46:08;11.30;55.00
72604;DHT22;60645;56.968;24.196;2023-05-10T03:48:35;11.70;54.40
72604;DHT22;60645;56.968;24.196;2023-05-10T03:51:01;12.10;53.70
72604;DHT22;60645;56.968;24.196;2023-05-10T03:53:28;12.20;53.20
72604;DHT22;60645;56.968;24.196;2023-05-10T03:55:55;12.50;52.40
72604;DHT22;60645;56.968;24.196;2023-05-10T03:58:22;12.70;49.90
72604;DHT22;60645;56.968;24.196;2023-05-10T04:00:48;12.90;50.10
72604;DHT22;60645;56.968;24.196;2023-05-10T04:03:15;12.80;49.30
72604;DHT22;60645;56.968;24.196;2023-05-10T04:05:42;12.90;49.00
72604;DHT22;60645;56.968;24.196;2023-05-10T04:08:09;13.00;49.40
72604;DHT22;60645;56.968;24.196;2023-05-10T04:10:36;13.00;48.30
72604;DHT22;60645;56.968;24.196;2023-05-10T04:13:03;13.00;47.40
72604;DHT22;60645;56.968;24.196;2023-05-10T04:15:29;13.30;47.90
72604;DHT22;60645;56.968;24.196;2023-05-10T04:17:56;13.70;46.80
72604;DHT22;60645;56.968;24.196;2023-05-10T04:20:23;14.00;46.30
72604;DHT22;60645;56.968;24.196;2023-05-10T04:22:50;14.30;45.90
72604;DHT22;60645;56.968;24.196;2023-05-10T04:25:16;14.60;45.30
72604;DHT22;60645;56.968;24.196;2023-05-10T04:27:43;15.00;45.10
72604;DHT22;60645;56.968;24.196;2023-05-10T04:30:10;15.40;42.60
72604;DHT22;60645;56.968;24.196;2023-05-10T04:32:37;15.70;43.30
72604;DHT22;60645;56.968;24.196;2023-05-10T04:35:05;15.50;43.30
72604;DHT22;60645;56.968;24.196;2023-05-10T04:37:32;15.80;42.40
72604;DHT22;60645;56.968;24.196;2023-05-10T04:39:59;15.90;41.90
72604;DHT22;60645;56.968;24.196;2023-05-10T04:42:26;16.20;41.40
72604;DHT22;60645;56.968;24.196;2023-05-10T04:44:53;16.60;42.00
72604;DHT22;60645;56.968;24.196;2023-05-10T04:47:20;16.80;40.30
72604;DHT22;60645;56.968;24.196;2023-05-10T04:49:47;16.90;41.40
72604;DHT22;60645;56.968;24.196;2023-05-10T04:52:13;17.00;40.50
72604;DHT22;60645;56.968;24.196;2023-05-10T04:54:41;17.40;39.90
72604;DHT22;60645;56.968;24.196;2023-05-10T04:57:08;17.50;40.30
72604;DHT22;60645;56.968;24.196;2023-05-10T04:59:35;18.00;39.90
72604;DHT22;60645;56.968;24.196;2023-05-10T05:02:03;18.40;38.90
72604;DHT22;60645;56.968;24.196;2023-05-10T05:04:30;18.60;39.10
72604;DHT22;60645;56.968;24.196;2023-05-10T05:06:57;18.50;38.10
72604;DHT22;60645;56.968;24.196;2023-05-10T05:09:24;18.40;38.60
72604;DHT22;60645;56.968;24.196;2023-05-10T05:11:51;18.50;37.90
72604;DHT22;60645;56.968;24.196;2023-05-10T05:14:17;18.80;38.50
72604;DHT22;60645;56.968;24.196;2023-05-10T05:16:44;18.90;38.00
72604;DHT22;60645;56.968;24.196;2023-05-10T05:19:11;19.00;37.70
72604;DHT22;60645;56.968;24.196;2023-05-10T05:21:38;19.40;37.20
72604;DHT22;60645;56.968;24.196;2023-05-10T05:24:05;19.60;37.60
72604;DHT22;60645;56.968;24.196;2023-05-10T05:26:32;19.80;38.00
72604;DHT22;60645;56.968;24.196;2023-05-10T05:28:58;20.00;37.50
72604;DHT22;60645;56.968;24.196;2023-05-10T05:31:25;20.50;36.50
72604;DHT22;60645;56.968;24.196;2023-05-10T05:33:52;20.90;36.50
72604;DHT22;60645;56.968;24.196;2023-05-10T05:36:19;20.90;35.80
72604;DHT22;60645;56.968;24.196;2023-05-10T05:38:46;20.50;36.50
72604;DHT22;60645;56.968;24.196;2023-05-10T05:41:13;20.70;36.00
72604;DHT22;60645;56.968;24.196;2023-05-10T05:43:39;20.80;36.60
72604;DHT22;60645;56.968;24.196;2023-05-10T05:46:06;21.20;35.30
72604;DHT22;60645;56.968;24.196;2023-05-10T05:48:33;21.90;35.40
72604;DHT22;60645;56.968;24.196;2023-05-10T05:51:00;21.80;35.30
72604;DHT22;60645;56.968;24.196;2023-05-10T05:53:26;21.70;35.40
72604;DHT22;60645;56.968;24.196;2023-05-10T05:55:54;22.20;34.60
72604;DHT22;60645;56.968;24.196;2023-05-10T05:58:21;22.30;35.20
72604;DHT22;60645;56.968;24.196;2023-05-10T06:00:48;22.80;34.70
72604;DHT22;60645;56.968;24.196;2023-05-10T06:03:17;23.40;33.90
72604;DHT22;60645;56.968;24.196;2023-05-10T06:05:44;23.30;33.70
72604;DHT22;60645;56.968;24.196;2023-05-10T06:08:11;23.40;33.30
72604;DHT22;60645;56.968;24.196;2023-05-10T06:10:38;24.00;33.80
72604;DHT22;60645;56.968;24.196;2023-05-10T06:13:04;23.80;34.00
72604;DHT22;60645;56.968;24.196;2023-05-10T06:15:31;23.90;33.20
72604;DHT22;60645;56.968;24.196;2023-05-10T06:17:59;24.20;33.00
72604;DHT22;60645;56.968;24.196;2023-05-10T06:20:27;24.20;32.90
72604;DHT22;60645;56.968;24.196;2023-05-10T06:22:54;24.50;33.30
72604;DHT22;60645;56.968;24.196;2023-05-10T06:25:21;24.50;33.50
72604;DHT22;60645;56.968;24.196;2023-05-10T06:27:49;24.60;32.80
72604;DHT22;60645;56.968;24.196;2023-05-10T06:30:19;24.60;32.60
72604;DHT22;60645;56.968;24.196;2023-05-10T06:32:48;25.40;32.30
72604;DHT22;60645;56.968;24.196;2023-05-10T06:35:15;25.40;32.20
72604;DHT22;60645;56.968;24.196;2023-05-10T06:37:43;25.50;31.40
72604;DHT22;60645;56.968;24.196;2023-05-10T06:40:09;25.50;32.20
72604;DHT22;60645;56.968;24.196;2023-05-10T06:42:36;26.10;31.40
72604;DHT22;60645;56.968;24.196;2023-05-10T06:45:04;25.90;31.30
72604;DHT22;60645;56.968;24.196;2023-05-10T06:47:31;25.70;31.50
72604;DHT22;60645;56.968;24.196;2023-05-10T06:49:58;25.90;31.50
72604;DHT22;60645;56.968;24.196;2023-05-10T06:52:25;25.90;31.60
72604;DHT22;60645;56.968;24.196;2023-05-10T06:54:52;25.80;31.30
72604;DHT22;60645;56.968;24.196;2023-05-10T06:57:18;25.90;30.20
72604;DHT22;60645;56.968;24.196;2023-05-10T06:59:58;25.90;31.10
72604;DHT22;60645;56.968;24.196;2023-05-10T07:02:27;26.60;29.60
72604;DHT22;60645;56.968;24.196;2023-05-10T07:04:54;26.60;29.60
72604;DHT22;60645;56.968;24.196;2023-05-10T07:07:21;26.40;30.50
72604;DHT22;60645;56.968;24.196;2023-05-10T07:09:48;26.40;29.70
72604;DHT22;60645;56.968;24.196;2023-05-10T07:12:16;26.00;29.60
72604;DHT22;60645;56.968;24.196;2023-05-10T07:14:43;26.00;29.50
72604;DHT22;60645;56.968;24.196;2023-05-10T07:17:10;26.30;29.60
72604;DHT22;60645;56.968;24.196;2023-05-10T07:19:38;27.80;29.20
72604;DHT22;60645;56.968;24.196;2023-05-10T07:22:05;27.70;29.30
72604;DHT22;60645;56.968;24.196;2023-05-10T07:24:33;28.30;28.70
72604;DHT22;60645;56.968;24.196;2023-05-10T07:27:00;28.40;28.10
72604;DHT22;60645;56.968;24.196;2023-05-10T07:29:26;29.10;27.60
72604;DHT22;60645;56.968;24.196;2023-05-10T07:31:53;28.70;28.00
72604;DHT22;60645;56.968;24.196;2023-05-10T07:34:26;29.40;28.00
72604;DHT22;60645;56.968;24.196;2023-05-10T07:36:53;29.30;28.00
72604;DHT22;60645;56.968;24.196;2023-05-10T07:39:20;29.20;27.90
72604;DHT22;60645;56.968;24.196;2023-05-10T07:41:54;29.10;27.90
72604;DHT22;60645;56.968;24.196;2023-05-10T07:44:20;29.60;28.20
72604;DHT22;60645;56.968;24.196;2023-05-10T07:46:47;29.40;27.00
72604;DHT22;60645;56.968;24.196;2023-05-10T07:49:15;29.00;27.80
72604;DHT22;60645;56.968;24.196;2023-05-10T07:51:41;29.50;27.40
72604;DHT22;60645;56.968;24.196;2023-05-10T07:54:09;29.50;27.50
72604;DHT22;60645;56.968;24.196;2023-05-10T07:56:36;29.20;27.80
72604;DHT22;60645;56.968;24.196;2023-05-10T07:59:03;28.60;27.20
72604;DHT22;60645;56.968;24.196;2023-05-10T08:01:32;28.70;27.90
72604;DHT22;60645;56.968;24.196;2023-05-10T08:04:00;29.10;27.40
72604;DHT22;60645;56.968;24.196;2023-05-10T08:06:28;29.30;27.50
72604;DHT22;60645;56.968;24.196;2023-05-10T08:08:57;29.60;27.40
72604;DHT22;60645;56.968;24.196;2023-05-10T08:11:24;30.00;26.80
72604;DHT22;60645;56.968;24.196;2023-05-10T08:13:51;30.10;27.00
72604;DHT22;60645;56.968;24.196;2023-05-10T08:16:19;29.80;26.60
72604;DHT22;60645;56.968;24.196;2023-05-10T08:18:47;29.50;27.00
72604;DHT22;60645;56.968;24.196;2023-05-10T08:21:14;29.10;26.40
72604;DHT22;60645;56.968;24.196;2023-05-10T08:26:10;28.60;26.70
72604;DHT22;60645;56.968;24.196;2023-05-10T08:28:37;28.30;26.90
72604;DHT22;60645;56.968;24.196;2023-05-10T08:31:05;29.30;26.70
72604;DHT22;60645;56.968;24.196;2023-05-10T08:33:32;30.00;26.50
72604;DHT22;60645;56.968;24.196;2023-05-10T08:35:59;29.80;26.70
72604;DHT22;60645;56.968;24.196;2023-05-10T08:38:28;29.80;26.10
72604;DHT22;60645;56.968;24.196;2023-05-10T08:40:55;29.80;26.10
72604;DHT22;60645;56.968;24.196;2023-05-10T08:43:27;30.00;26.20
72604;DHT22;60645;56.968;24.196;2023-05-10T08:45:55;29.00;26.20
72604;DHT22;60645;56.968;24.196;2023-05-10T08:48:23;28.70;26.20
72604;DHT22;60645;56.968;24.196;2023-05-10T08:50:52;28.80;26.40
72604;DHT22;60645;56.968;24.196;2023-05-10T08:53:19;28.50;26.60
72604;DHT22;60645;56.968;24.196;2023-05-10T08:55:46;28.70;26.50
72604;DHT22;60645;56.968;24.196;2023-05-10T08:58:13;29.00;26.60
72604;DHT22;60645;56.968;24.196;2023-05-10T09:00:40;29.30;26.60
72604;DHT22;60645;56.968;24.196;2023-05-10T09:03:07;29.40;26.40
72604;DHT22;60645;56.968;24.196;2023-05-10T09:05:35;29.20;26.60
72604;DHT22;60645;56.968;24.196;2023-05-10T09:08:03;29.50;26.50
72604;DHT22;60645;56.968;24.196;2023-05-10T09:10:30;30.00;25.80
72604;DHT22;60645;56.968;24.196;2023-05-10T09:12:58;29.90;25.80
72604;DHT22;60645;56.968;24.196;2023-05-10T09:15:25;29.90;25.70
72604;DHT22;60645;56.968;24.196;2023-05-10T09:17:52;30.10;26.00
72604;DHT22;60645;56.968;24.196;2023-05-10T09:20:21;28.90;25.90
72604;DHT22;60645;56.968;24.196;2023-05-10T09:22:48;29.50;26.40
72604;DHT22;60645;56.968;24.196;2023-05-10T09:25:18;30.10;25.80
72604;DHT22;60645;56.968;24.196;2023-05-10T09:27:46;30.70;25.20
72604;DHT22;60645;56.968;24.196;2023-05-10T09:30:33;31.00;25.40
72604;DHT22;60645;56.968;24.196;2023-05-10T09:33:00;30.90;25.50
72604;DHT22;60645;56.968;24.196;2023-05-10T09:35:29;31.10;25.40
72604;DHT22;60645;56.968;24.196;2023-05-10T09:37:59;31.30;25.90
72604;DHT22;60645;56.968;24.196;2023-05-10T09:40:27;30.20;26.00
72604;DHT22;60645;56.968;24.196;2023-05-10T09:43:02;30.60;26.00
72604;DHT22;60645;56.968;24.196;2023-05-10T09:45:30;31.50;25.60
72604;DHT22;60645;56.968;24.196;2023-05-10T09:47:57;31.90;25.40
72604;DHT22;60645;56.968;24.196;2023-05-10T10:05:09;32.00;24.70
72604;DHT22;60645;56.968;24.196;2023-05-10T10:07:38;30.20;25.60
72604;DHT22;60645;56.968;24.196;2023-05-10T10:10:05;31.10;25.00
72604;DHT22;60645;56.968;24.196;2023-05-10T10:12:32;31.90;25.10
72604;DHT22;60645;56.968;24.196;2023-05-10T10:17:27;33.10;24.60
72604;DHT22;60645;56.968;24.196;2023-05-10T10:19:55;32.70;24.60
72604;DHT22;60645;56.968;24.196;2023-05-10T10:22:22;31.20;25.00
72604;DHT22;60645;56.968;24.196;2023-05-10T10:24:50;30.50;25.00
72604;DHT22;60645;56.968;24.196;2023-05-10T10:29:52;30.60;25.50
72604;DHT22;60645;56.968;24.196;2023-05-10T10:32:27;30.40;25.30
72604;DHT22;60645;56.968;24.196;2023-05-10T10:34:56;31.00;25.20
72604;DHT22;60645;56.968;24.196;2023-05-10T10:37:23;30.50;25.10
72604;DHT22;60645;56.968;24.196;2023-05-10T10:39:50;31.80;24.50
72604;DHT22;60645;56.968;24.196;2023-05-10T10:47:30;33.60;23.90
72604;DHT22;60645;56.968;24.196;2023-05-10T10:52:28;33.50;24.40
72604;DHT22;60645;56.968;24.196;2023-05-10T10:57:33;32.70;24.50
72604;DHT22;60645;56.968;24.196;2023-05-10T11:00:28;33.20;24.40
72604;DHT22;60645;56.968;24.196;2023-05-10T11:02:58;32.00;24.90
72604;DHT22;60645;56.968;24.196;2023-05-10T11:10:23;33.70;24.40
72604;DHT22;60645;56.968;24.196;2023-05-10T11:15:28;35.10;23.60
72604;DHT22;60645;56.968;24.196;2023-05-10T11:17:55;34.40;23.80
72604;DHT22;60645;56.968;24.196;2023-05-10T11:20:22;32.80;24.10
72604;DHT22;60645;56.968;24.196;2023-05-10T11:22:51;31.30;24.40
72604;DHT22;60645;56.968;24.196;2023-05-10T11:25:19;31.30;24.70
72604;DHT22;60645;56.968;24.196;2023-05-10T11:27:49;32.00;24.90
72604;DHT22;60645;56.968;24.196;2023-05-10T11:30:16;32.10;24.80
72604;DHT22;60645;56.968;24.196;2023-05-10T11:32:44;33.20;24.10
72604;DHT22;60645;56.968;24.196;2023-05-10T11:35:12;34.00;23.90
72604;DHT22;60645;56.968;24.196;2023-05-10T11:37:39;34.10;24.00
72604;DHT22;60645;56.968;24.196;2023-05-10T11:40:09;34.00;24.20
72604;DHT22;60645;56.968;24.196;2023-05-10T11:42:40;33.50;24.10
72604;DHT22;60645;56.968;24.196;2023-05-10T11:45:07;33.70;24.00
72604;DHT22;60645;56.968;24.196;2023-05-10T11:47:34;34.30;24.00
72604;DHT22;60645;56.968;24.196;2023-05-10T11:50:03;34.50;23.90
72604;DHT22;60645;56.968;24.196;2023-05-10T11:52:35;35.60;23.50
72604;DHT22;60645;56.968;24.196;2023-05-10T11:55:04;35.40;23.10
72604;DHT22;60645;56.968;24.196;2023-05-10T11:59:58;33.40;24.30
72604;DHT22;60645;56.968;24.196;2023-05-10T12:02:26;33.10;24.00
72604;DHT22;60645;56.968;24.196;2023-05-10T12:04:52;32.20;24.50
72604;DHT22;60645;56.968;24.196;2023-05-10T12:07:21;32.40;24.40
72604;DHT22;60645;56.968;24.196;2023-05-10T12:12:40;33.00;23.90
72604;DHT22;60645;56.968;24.196;2023-05-10T12:15:26;33.50;24.30
72604;DHT22;60645;56.968;24.196;2023-05-10T12:17:54;33.40;23.80
72604;DHT22;60645;56.968;24.196;2023-05-10T12:20:22;33.60;24.20
72604;DHT22;60645;56.968;24.196;2023-05-10T12:22:54;34.50;23.60
72604;DHT22;60645;56.968;24.196;2023-05-10T12:25:24;34.00;23.80
72604;DHT22;60645;56.968;24.196;2023-05-10T12:27:56;34.10;23.90
72604;DHT22;60645;56.968;24.196;2023-05-10T12:30:23;32.90;24.30
72604;DHT22;60645;56.968;24.196;2023-05-10T12:32:51;32.00;24.80
72604;DHT22;60645;56.968;24.196;2023-05-10T12:35:18;32.40;24.50
72604;DHT22;60645;56.968;24.196;2023-05-10T12:37:48;32.90;24.00
72604;DHT22;60645;56.968;24.196;2023-05-10T12:40:15;32.40;24.30
72604;DHT22;60645;56.968;24.196;2023-05-10T12:42:42;33.10;24.10
72604;DHT22;60645;56.968;24.196;2023-05-10T12:45:11;33.10;23.90
72604;DHT22;60645;56.968;24.196;2023-05-10T12:47:38;32.50;24.10
72604;DHT22;60645;56.968;24.196;2023-05-10T12:50:08;32.30;24.30
72604;DHT22;60645;56.968;24.196;2023-05-10T12:52:35;32.70;24.20
72604;DHT22;60645;56.968;24.196;2023-05-10T12:55:02;31.90;24.30
72604;DHT22;60645;56.968;24.196;2023-05-10T12:57:29;31.10;24.40
72604;DHT22;60645;56.968;24.196;2023-05-10T12:59:57;31.20;24.20
72604;DHT22;60645;56.968;24.196;2023-05-10T13:02:23;31.30;24.50
72604;DHT22;60645;56.968;24.196;2023-05-10T13:04:50;31.00;24.70
72604;DHT22;60645;56.968;24.196;2023-05-10T13:07:17;27.80;25.40
72604;DHT22;60645;56.968;24.196;2023-05-10T13:09:44;25.00;27.10
72604;DHT22;60645;56.968;24.196;2023-05-10T13:12:11;23.70;27.60
72604;DHT22;60645;56.968;24.196;2023-05-10T13:14:37;23.30;27.60
72604;DHT22;60645;56.968;24.196;2023-05-10T13:17:06;23.30;28.00
72604;DHT22;60645;56.968;24.196;2023-05-10T13:19:33;23.20;28.30
72604;DHT22;60645;56.968;24.196;2023-05-10T13:22:00;22.70;28.10
72604;DHT22;60645;56.968;24.196;2023-05-10T13:24:27;22.70;28.30
72604;DHT22;60645;56.968;24.196;2023-05-10T13:26:54;22.70;28.60
72604;DHT22;60645;56.968;24.196;2023-05-10T13:29:20;22.80;28.10
72604;DHT22;60645;56.968;24.196;2023-05-10T13:31:48;22.70;28.70
72604;DHT22;60645;56.968;24.196;2023-05-10T13:34:16;22.70;28.70
72604;DHT22;60645;56.968;24.196;2023-05-10T13:36:42;22.60;28.60
72604;DHT22;60645;56.968;24.196;2023-05-10T13:39:09;22.40;28.90
72604;DHT22;60645;56.968;24.196;2023-05-10T13:41:36;22.10;29.30
72604;DHT22;60645;56.968;24.196;2023-05-10T13:44:03;22.00;29.60
72604;DHT22;60645;56.968;24.196;2023-05-10T13:46:30;22.00;29.30
72604;DHT22;60645;56.968;24.196;2023-05-10T13:48:57;21.70;29.30
72604;DHT22;60645;56.968;24.196;2023-05-10T13:51:24;21.60;30.00
72604;DHT22;60645;56.968;24.196;2023-05-10T13:53:50;21.50;30.10
72604;DHT22;60645;56.968;24.196;2023-05-10T13:56:18;21.40;29.90
72604;DHT22;60645;56.968;24.196;2023-05-10T13:58:45;21.50;30.00
72604;DHT22;60645;56.968;24.196;2023-05-10T14:01:12;21.50;29.90
72604;DHT22;60645;56.968;24.196;2023-05-10T14:03:39;21.40;29.80
72604;DHT22;60645;56.968;24.196;2023-05-10T14:06:06;21.30;29.70
72604;DHT22;60645;56.968;24.196;2023-05-10T14:08:34;21.20;30.00
72604;DHT22;60645;56.968;24.196;2023-05-10T14:11:01;21.10;29.90
72604;DHT22;60645;56.968;24.196;2023-05-10T14:13:28;21.00;30.00
72604;DHT22;60645;56.968;24.196;2023-05-10T14:15:55;21.20;30.30
72604;DHT22;60645;56.968;24.196;2023-05-10T14:18:22;21.30;30.50
72604;DHT22;60645;56.968;24.196;2023-05-10T14:20:49;21.30;30.30
72604;DHT22;60645;56.968;24.196;2023-05-10T14:23:15;21.10;29.70
72604;DHT22;60645;56.968;24.196;2023-05-10T14:25:42;21.10;30.00
72604;DHT22;60645;56.968;24.196;2023-05-10T14:28:09;21.30;30.00
72604;DHT22;60645;56.968;24.196;2023-05-10T14:30:36;21.30;29.90
72604;DHT22;60645;56.968;24.196;2023-05-10T14:33:03;21.10;30.10
72604;DHT22;60645;56.968;24.196;2023-05-10T14:35:30;21.20;29.80
72604;DHT22;60645;56.968;24.196;2023-05-10T14:38:00;21.30;30.00
72604;DHT22;60645;56.968;24.196;2023-05-10T14:40:26;21.40;29.70
72604;DHT22;60645;56.968;24.196;2023-05-10T14:42:53;21.30;29.90
72604;DHT22;60645;56.968;24.196;2023-05-10T14:45:20;21.20;30.10
72604;DHT22;60645;56.968;24.196;2023-05-10T14:47:47;21.00;30.50
72604;DHT22;60645;56.968;24.196;2023-05-10T14:50:14;21.00;30.10
72604;DHT22;60645;56.968;24.196;2023-05-10T14:53:01;21.10;30.20
72604;DHT22;60645;56.968;24.196;2023-05-10T14:55:31;21.00;30.50
72604;DHT22;60645;56.968;24.196;2023-05-10T14:57:58;21.10;30.50
72604;DHT22;60645;56.968;24.196;2023-05-10T15:00:25;21.40;29.90
72604;DHT22;60645;56.968;24.196;2023-05-10T15:02:53;21.50;30.20
72604;DHT22;60645;56.968;24.196;2023-05-10T15:05:21;21.50;29.90
72604;DHT22;60645;56.968;24.196;2023-05-10T15:07:48;21.40;29.90
72604;DHT22;60645;56.968;24.196;2023-05-10T15:10:15;21.40;30.20
72604;DHT22;60645;56.968;24.196;2023-05-10T15:12:43;21.30;30.60
72604;DHT22;60645;56.968;24.196;2023-05-10T15:15:09;21.20;30.70
72604;DHT22;60645;56.968;24.196;2023-05-10T15:17:36;21.10;30.60
72604;DHT22;60645;56.968;24.196;2023-05-10T15:20:03;21.00;30.70
72604;DHT22;60645;56.968;24.196;2023-05-10T15:22:30;20.90;30.60
72604;DHT22;60645;56.968;24.196;2023-05-10T15:24:59;20.80;31.30
72604;DHT22;60645;56.968;24.196;2023-05-10T15:27:26;20.80;31.20
72604;DHT22;60645;56.968;24.196;2023-05-10T15:29:53;20.60;31.40
72604;DHT22;60645;56.968;24.196;2023-05-10T15:32:20;20.50;31.40
72604;DHT22;60645;56.968;24.196;2023-05-10T15:34:47;20.50;31.60
72604;DHT22;60645;56.968;24.196;2023-05-10T15:37:14;20.30;31.70
72604;DHT22;60645;56.968;24.196;2023-05-10T15:39:41;20.30;31.40
72604;DHT22;60645;56.968;24.196;2023-05-10T15:42:07;20.20;31.50
72604;DHT22;60645;56.968;24.196;2023-05-10T15:44:34;20.20;32.00
72604;DHT22;60645;56.968;24.196;2023-05-10T15:47:01;20.20;32.40
72604;DHT22;60645;56.968;24.196;2023-05-10T15:49:29;20.20;32.00
72604;DHT22;60645;56.968;24.196;2023-05-10T15:51:56;20.30;31.70
72604;DHT22;60645;56.968;24.196;2023-05-10T15:54:23;20.10;31.80
72604;DHT22;60645;56.968;24.196;2023-05-10T15:56:49;20.10;31.90
72604;DHT22;60645;56.968;24.196;2023-05-10T15:59:16;20.10;32.00
72604;DHT22;60645;56.968;24.196;2023-05-10T16:01:43;20.10;31.70
72604;DHT22;60645;56.968;24.196;2023-05-10T16:04:10;20.00;31.70
72604;DHT22;60645;56.968;24.196;2023-05-10T16:06:37;20.00;31.70
72604;DHT22;60645;56.968;24.196;2023-05-10T16:09:03;20.00;31.90
72604;DHT22;60645;56.968;24.196;2023-05-10T16:11:31;19.90;32.00
72604;DHT22;60645;56.968;24.196;2023-05-10T16:13:58;19.80;32.40
72604;DHT22;60645;56.968;24.196;2023-05-10T16:16:25;19.70;32.50
72604;DHT22;60645;56.968;24.196;2023-05-10T16:18:52;19.50;32.40
72604;DHT22;60645;56.968;24.196;2023-05-10T16:21:19;19.50;32.60
72604;DHT22;60645;56.968;24.196;2023-05-10T16:23:46;19.50;32.50
72604;DHT22;60645;56.968;24.196;2023-05-10T16:26:13;19.50;32.50